createdAt,value
2022-10-04T03:55:12.178Z,100857.45
2022-10-04T03:58:36.723Z,100852.30
2022-10-04T04:02:06.909Z,100852.33
2022-10-04T04:05:35.751Z,100854.77
2022-10-04T04:09:00.485Z,100851.80
2022-10-04T04:12:33.616Z,100845.19
2022-10-04T04:16:00.159Z,100850.73
2022-10-04T04:19:26.199Z,100854.84
2022-10-04T04:22:58.478Z,100859.48
2022-10-04T04:26:27.790Z,100866.70
2022-10-04T04:29:53.186Z,100870.75
2022-10-04T04:33:25.686Z,100870.93
2022-10-04T04:36:49.202Z,100873.04
2022-10-04T04:40:20.205Z,100879.00
2022-10-04T04:43:44.668Z,100877.13
2022-10-04T04:47:09.867Z,100879.97
2022-10-04T04:50:37.162Z,100886.61
2022-10-04T04:54:04.361Z,100890.33
2022-10-04T04:57:27.974Z,100896.28
2022-10-04T05:00:57.493Z,100898.36
2022-10-04T05:04:22.610Z,100895.36
2022-10-04T05:07:46.186Z,100900.36
2022-10-04T05:11:16.062Z,100905.52
2022-10-04T05:14:41.208Z,100905.80
2022-10-04T05:18:20.985Z,100908.88
2022-10-04T05:21:44.965Z,100910.17
2022-10-04T05:25:15.124Z,100916.89
2022-10-04T05:28:38.380Z,100922.55
2022-10-04T05:32:13.896Z,100926.47
2022-10-04T05:35:54.447Z,100931.43
2022-10-04T05:39:26.469Z,100935.89
2022-10-04T05:42:51.647Z,100938.76
2022-10-04T05:46:21.621Z,100944.28
2022-10-04T05:49:47.398Z,100948.06
2022-10-04T05:53:23.897Z,100947.99
2022-10-04T05:57:06.320Z,100949.35
2022-10-04T06:00:39.507Z,100952.11
2022-10-04T06:04:24.864Z,100957.52
2022-10-04T06:07:56.015Z,100957.16
2022-10-04T06:11:32.466Z,100964.40
2022-10-04T06:15:08.493Z,100965.84
2022-10-04T06:18:54.539Z,100969.73
2022-10-04T06:22:19.348Z,100972.39
2022-10-04T06:25:48.661Z,100974.16
2022-10-04T06:29:16.391Z,100975.61
2022-10-04T06:32:57.432Z,100973.95
2022-10-04T06:36:46.347Z,100980.86
2022-10-04T06:40:32.429Z,100980.73
2022-10-04T06:44:20.200Z,100986.72
2022-10-04T06:48:02.294Z,100988.31
2022-10-04T06:51:41.538Z,100997.50
2022-10-04T06:55:20.246Z,100999.98
2022-10-04T06:59:21.697Z,100998.75
2022-10-04T07:02:50.944Z,101000.04
2022-10-04T07:06:21.018Z,101001.15
2022-10-04T07:09:46.230Z,101000.02
2022-10-04T07:13:33.156Z,101007.30
2022-10-04T07:17:02.709Z,101006.95
2022-10-04T07:20:33.182Z,101009.02
2022-10-04T07:24:01.092Z,101007.45
2022-10-04T07:27:30.405Z,101006.64
2022-10-04T07:30:57.220Z,101007.69
2022-10-04T07:34:26.835Z,101010.54
2022-10-04T07:37:54.988Z,101011.27
2022-10-04T07:41:25.178Z,101014.71
2022-10-04T07:44:59.732Z,101015.16
2022-10-04T07:48:24.273Z,101017.83
2022-10-04T07:52:03.105Z,101021.16
2022-10-04T07:55:40.773Z,101021.45
2022-10-04T07:59:21.750Z,101025.09
2022-10-04T08:02:55.857Z,101029.35
2022-10-04T08:06:29.746Z,101033.24
2022-10-04T08:10:02.933Z,101035.34
2022-10-04T08:13:34.429Z,101036.72
2022-10-04T08:17:15.572Z,101041.33
2022-10-04T08:20:47.120Z,101048.16
2022-10-04T08:24:20.678Z,101042.48
2022-10-04T08:28:15.588Z,101047.85
2022-10-04T08:31:47.855Z,101046.01
2022-10-04T08:35:33.098Z,101050.59
2022-10-04T08:38:58.416Z,101049.60
2022-10-04T08:42:56.484Z,101055.08
2022-10-04T08:46:43.596Z,101061.77
2022-10-04T08:50:33.637Z,101066.64
2022-10-04T08:54:27.280Z,101069.56
2022-10-04T08:58:08.200Z,101071.04
2022-10-04T09:01:55.343Z,101075.73
2022-10-04T09:05:46.671Z,101076.50
2022-10-04T09:09:40.197Z,101072.38
2022-10-04T09:13:24.004Z,101077.52
2022-10-04T09:16:49.437Z,101077.90
2022-10-04T09:20:38.941Z,101079.70
2022-10-04T09:24:32.172Z,101086.39
2022-10-04T09:28:20.006Z,101084.36
2022-10-04T09:32:19.680Z,101086.38
2022-10-04T09:35:55.538Z,101090.47
2022-10-04T09:39:36.904Z,101095.71
2022-10-04T09:43:33.004Z,101092.32
2022-10-04T09:47:23.740Z,101093.05
2022-10-04T09:51:24.771Z,101100.17
2022-10-04T09:55:09.440Z,101099.65
2022-10-04T09:58:58.148Z,101098.27
2022-10-04T10:02:46.815Z,101097.46
2022-10-04T10:06:24.191Z,101097.05
2022-10-04T10:10:16.320Z,101103.52
2022-10-04T10:14:09.082Z,101103.39
2022-10-04T10:17:41.151Z,101109.38
2022-10-04T10:21:22.068Z,101109.34
2022-10-04T10:25:12.881Z,101112.48
2022-10-04T10:29:01.824Z,101115.48
2022-10-04T10:32:50.924Z,101118.11
2022-10-04T10:36:28.521Z,101125.90
2022-10-04T10:40:16.419Z,101126.48
2022-10-04T10:43:57.009Z,101123.23
2022-10-04T10:47:33.916Z,101126.09
2022-10-04T10:51:10.027Z,101116.75
2022-10-04T10:54:54.879Z,101122.58
2022-10-04T10:58:49.519Z,101122.56
2022-10-04T11:02:52.365Z,101126.92
2022-10-04T11:06:29.069Z,101126.12
2022-10-04T11:10:35.155Z,101127.20
2022-10-04T11:14:36.270Z,101127.27
2022-10-04T11:18:37.032Z,101128.86
2022-10-04T11:22:43.954Z,101124.60
2022-10-04T11:26:34.049Z,101133.56
2022-10-04T11:30:24.168Z,101139.75
2022-10-04T11:34:17.911Z,101137.86
2022-10-04T11:37:53.338Z,101141.09
2022-10-04T11:41:26.742Z,101142.86
2022-10-04T11:45:20.358Z,101134.39
2022-10-04T11:48:59.139Z,101138.11
2022-10-04T11:53:03.884Z,101136.15
2022-10-04T11:56:39.750Z,101134.20
2022-10-04T12:00:11.820Z,101134.20
2022-10-04T12:04:02.656Z,101129.45
2022-10-04T12:07:42.255Z,101125.58
2022-10-04T12:11:50.440Z,101120.61
2022-10-04T12:15:38.397Z,101116.02
2022-10-04T12:19:44.660Z,101110.35
2022-10-04T12:23:42.568Z,101112.98
2022-10-04T12:27:29.732Z,101106.91
2022-10-04T12:31:13.559Z,101101.86
2022-10-04T12:34:47.220Z,101103.80
2022-10-04T12:38:26.182Z,101103.50
2022-10-04T12:41:57.531Z,101102.66
2022-10-04T12:45:34.473Z,101105.18
2022-10-04T12:49:08.347Z,101105.03
2022-10-04T12:52:45.493Z,101106.27
2022-10-04T12:56:21.284Z,101105.59
2022-10-04T12:59:54.632Z,101111.44
2022-10-04T13:03:39.545Z,101115.69
2022-10-04T13:07:28.153Z,101114.30
2022-10-04T13:11:09.981Z,101117.10
2022-10-04T13:14:55.098Z,101120.59
2022-10-04T13:18:27.183Z,101121.61
2022-10-04T13:22:06.592Z,101117.95
2022-10-04T13:25:45.086Z,101120.80
2022-10-04T13:29:20.051Z,101125.04
2022-10-04T13:32:51.371Z,101121.51
2022-10-04T13:36:23.330Z,101123.98
2022-10-04T13:40:16.467Z,101126.81
2022-10-04T13:44:00.717Z,101124.16
2022-10-04T13:47:39.556Z,101123.96
2022-10-04T13:51:32.091Z,101123.06
2022-10-04T13:55:28.735Z,101127.29
2022-10-04T13:58:59.759Z,101128.16
2022-10-04T14:03:01.483Z,101125.17
2022-10-04T14:07:03.670Z,101123.79
2022-10-04T14:10:55.567Z,101123.63
2022-10-04T14:14:48.760Z,101129.63
2022-10-04T14:19:00.158Z,101125.39
2022-10-04T14:22:58.667Z,101128.05
2022-10-04T14:26:45.737Z,101134.39
2022-10-04T14:30:22.528Z,101133.87
2022-10-04T14:34:15.475Z,101134.20
2022-10-04T14:38:16.257Z,101133.26
2022-10-04T14:42:24.165Z,101127.77
2022-10-04T14:46:06.593Z,101130.23
2022-10-04T14:49:51.618Z,101128.11
2022-10-04T14:53:23.027Z,101132.67
2022-10-04T14:57:01.050Z,101133.19
2022-10-04T15:00:32.152Z,101136.16
2022-10-04T15:04:13.230Z,101135.08
2022-10-04T15:07:39.901Z,101133.81
2022-10-04T15:11:07.480Z,101131.84
2022-10-04T15:14:44.541Z,101129.52
2022-10-04T15:18:27.443Z,101136.17
2022-10-04T15:22:07.039Z,101131.55
2022-10-04T15:25:43.017Z,101137.14
2022-10-04T15:29:23.099Z,101141.32
2022-10-04T15:32:53.792Z,101148.45
2022-10-04T15:36:46.654Z,101151.36
2022-10-04T15:40:23.596Z,101157.78
2022-10-04T15:44:12.078Z,101159.09
2022-10-04T15:47:50.956Z,101157.76
2022-10-04T15:51:34.963Z,101164.15
2022-10-04T15:55:27.482Z,101166.66
2022-10-04T15:59:06.709Z,101164.95
2022-10-04T16:02:54.963Z,101158.30
2022-10-04T16:06:23.793Z,101154.23
2022-10-04T16:09:55.587Z,101153.49
2022-10-04T16:13:38.526Z,101151.13
2022-10-04T16:17:43.394Z,101153.48
2022-10-04T16:21:18.677Z,101152.48
2022-10-04T16:24:46.142Z,101152.58
2022-10-04T16:28:19.770Z,101151.25
2022-10-04T16:31:50.387Z,101155.65
2022-10-04T16:35:26.902Z,101159.58
2022-10-04T16:39:13.214Z,101160.27
2022-10-04T16:42:54.335Z,101164.83
2022-10-04T16:46:29.980Z,101163.76
2022-10-04T16:49:56.516Z,101163.95
2022-10-04T16:53:31.387Z,101168.73
2022-10-04T16:57:15.581Z,101175.98
2022-10-04T17:00:39.416Z,101177.23
2022-10-04T17:04:16.902Z,101176.05
2022-10-04T17:08:10.375Z,101177.12
2022-10-04T17:11:42.707Z,101180.98
2022-10-04T17:15:26.928Z,101188.89
2022-10-04T17:18:54.726Z,101196.79
2022-10-04T17:22:33.615Z,101195.81
2022-10-04T17:26:07.586Z,101192.74
2022-10-04T17:29:44.161Z,101194.96
2022-10-04T17:33:23.646Z,101193.79
2022-10-04T17:36:49.543Z,101195.48
2022-10-04T17:40:38.773Z,101196.96
2022-10-04T17:44:27.858Z,101198.77
2022-10-04T17:48:18.936Z,101197.44
2022-10-04T17:52:04.826Z,101202.92
2022-10-04T17:55:38.632Z,101209.77
2022-10-04T17:59:12.254Z,101206.90
2022-10-04T18:02:52.240Z,101212.10
2022-10-04T18:06:29.317Z,101206.38
2022-10-04T18:09:54.720Z,101210.23
2022-10-04T18:13:26.473Z,101209.06
2022-10-04T18:16:54.295Z,101204.79
2022-10-04T18:20:30.002Z,101205.02
2022-10-04T18:23:55.590Z,101203.16
2022-10-04T18:27:21.926Z,101208.00
2022-10-04T18:30:59.523Z,101212.84
2022-10-04T18:34:30.498Z,101213.24
2022-10-04T18:37:56.525Z,101212.75
2022-10-04T18:41:22.756Z,101224.86
2022-10-04T18:44:50.664Z,101226.13
2022-10-04T18:48:36.746Z,101223.87
2022-10-04T18:52:15.558Z,101222.10
2022-10-04T18:55:50.238Z,101225.14
2022-10-04T18:59:49.514Z,101233.24
2022-10-04T19:03:25.657Z,101234.72
2022-10-04T19:06:49.746Z,101238.27
2022-10-04T19:10:21.164Z,101244.77
2022-10-04T19:13:54.112Z,101253.69
2022-10-04T19:17:26.674Z,101253.15
2022-10-04T19:20:59.739Z,101253.77
2022-10-04T19:24:47.768Z,101249.23
2022-10-04T19:28:18.568Z,101245.52
2022-10-04T19:31:50.401Z,101241.14
2022-10-04T19:35:25.260Z,101233.08
2022-10-04T19:39:01.011Z,101224.38
2022-10-04T19:42:33.830Z,101231.52
2022-10-04T19:46:11.280Z,101232.04
2022-10-04T19:49:43.740Z,101234.30
2022-10-04T19:53:13.090Z,101234.66
2022-10-04T19:56:42.783Z,101241.46
2022-10-04T20:00:12.014Z,101242.73
2022-10-04T20:03:35.281Z,101244.38
2022-10-04T20:07:00.243Z,101245.52
2022-10-04T20:10:32.925Z,101241.59
2022-10-04T20:14:32.489Z,101242.18
2022-10-04T20:17:57.525Z,101242.45
2022-10-04T20:21:30.591Z,101237.98
2022-10-04T20:24:55.692Z,101240.31
2022-10-04T20:28:41.602Z,101244.38
2022-10-04T20:32:06.823Z,101248.77
2022-10-04T20:36:05.753Z,101256.35
2022-10-04T20:39:59.003Z,101260.77
2022-10-04T20:43:28.902Z,101264.72
2022-10-04T20:46:51.308Z,101266.85
2022-10-04T20:50:19.721Z,101277.67
2022-10-04T20:53:46.134Z,101283.06
2022-10-04T20:57:13.426Z,101285.13
2022-10-04T21:00:50.347Z,101291.36
2022-10-04T21:04:15.307Z,101294.99
2022-10-04T21:07:38.680Z,101291.04
2022-10-04T21:11:20.048Z,101285.67
2022-10-04T21:15:03.053Z,101278.27
2022-10-04T21:18:26.364Z,101280.39
2022-10-04T21:21:49.842Z,101282.23
2022-10-04T21:25:31.256Z,101281.63
2022-10-04T21:28:56.551Z,101282.79
2022-10-04T21:32:20.224Z,101281.36
2022-10-04T21:35:43.508Z,101277.80
2022-10-04T21:39:07.155Z,101275.33
2022-10-04T21:42:30.461Z,101275.77
2022-10-04T21:45:53.769Z,101278.19
2022-10-04T21:49:17.261Z,101275.16
2022-10-04T21:52:40.874Z,101277.21
2022-10-04T21:56:06.915Z,101274.37
2022-10-04T21:59:30.311Z,101268.39
2022-10-04T22:02:53.930Z,101266.77
2022-10-04T22:06:17.138Z,101262.88
2022-10-04T22:09:40.344Z,101264.93
2022-10-04T22:13:03.864Z,101259.88
2022-10-04T22:16:27.613Z,101254.70
2022-10-04T22:19:52.481Z,101254.16
2022-10-04T22:23:18.270Z,101257.38
2022-10-04T22:26:41.501Z,101260.04
2022-10-04T22:30:11.236Z,101258.58
2022-10-04T22:33:36.106Z,101257.77
2022-10-04T22:36:59.457Z,101251.55
2022-10-04T22:40:25.008Z,101242.20
2022-10-04T22:43:49.915Z,101226.08
2022-10-04T22:47:15.405Z,101217.79
2022-10-04T22:50:39.212Z,101217.97
